Time;durP1;ratioP1;P1;durP2;ratioP2;P2;SDS_P1;SDS_P2;PMS_P1;PMS_P2;Temp;Humidity;BMP_temperature;BMP_pressure;BME280_temperature;BME280_humidity;BME280_pressure;Samples;Min_cycle;Max_cycle;Signal;HPM_P1;HPM_P2
2021/12/09 00:01:28;;;;;;;8.38;7.50;;;;;;;4.79;75.00;99659.44;5009602;28;20049;-62
2021/12/09 00:04:00;;;;;;;9.40;8.40;;;;;;;4.85;74.59;99655.69;5009854;28;20440;-62
2021/12/09 00:06:30;;;;;;;8.45;7.55;;;;;;;4.77;74.76;99656.06;5009351;28;20054;-62
2021/12/09 00:09:01;;;;;;;8.57;7.68;;;;;;;4.72;75.01;99664.09;5009419;28;20050;-63
2021/12/09 00:11:29;;;;;;;10.38;8.10;;;;;;;4.71;75.14;99664.16;5009555;28;20053;-63
2021/12/09 00:13:57;;;;;;;8.68;7.78;;;;;;;4.79;74.91;99669.84;5009552;28;20046;-62
2021/12/09 00:16:23;;;;;;;9.15;8.20;;;;;;;4.75;75.05;99660.53;5009097;28;20049;-62
2021/12/09 00:18:50;;;;;;;8.82;7.90;;;;;;;4.72;75.10;99653.72;5009137;28;20514;-62
2021/12/09 00:21:17;;;;;;;8.25;7.38;;;;;;;4.79;75.07;99656.84;5008511;28;20392;-62
2021/12/09 00:23:44;;;;;;;9.13;7.65;;;;;;;4.80;74.78;99660.25;5009514;28;20124;-62
2021/12/09 00:26:10;;;;;;;8.85;7.63;;;;;;;4.79;74.56;99656.00;5009394;28;20483;-62
2021/12/09 00:28:37;;;;;;;9.73;7.90;;;;;;;4.84;74.79;99651.41;5009436;28;20061;-62
2021/12/09 00:31:05;;;;;;;9.32;8.05;;;;;;;4.73;74.94;99652.78;5009280;28;20053;-62
2021/12/09 00:33:31;;;;;;;8.10;7.30;;;;;;;4.78;75.06;99654.31;5009692;28;20049;-62
2021/12/09 00:36:00;;;;;;;8.32;7.40;;;;;;;4.79;74.45;99663.81;5009048;28;20092;-62
2021/12/09 00:38:34;;;;;;;8.10;7.25;;;;;;;4.72;74.99;99656.31;5009450;28;20058;-62
2021/12/09 00:41:05;;;;;;;8.38;7.13;;;;;;;4.73;74.96;99655.38;5009420;28;20101;-62
2021/12/09 00:43:32;;;;;;;7.28;6.38;;;;;;;4.73;74.57;99642.38;5009211;28;20517;-62
2021/12/09 00:45:59;;;;;;;7.38;6.63;;;;;;;4.72;74.69;99648.53;5008724;28;20077;-62
2021/12/09 00:48:27;;;;;;;8.25;6.18;;;;;;;4.70;74.71;99659.91;5008157;28;20846;-62
2021/12/09 00:50:55;;;;;;;7.13;6.10;;;;;;;4.70;74.94;99670.31;5008747;28;20050;-62
2021/12/09 00:53:22;;;;;;;7.10;5.80;;;;;;;4.73;75.01;99672.72;5009396;28;20058;-62
2021/12/09 00:55:49;;;;;;;7.65;5.97;;;;;;;4.66;75.04;99669.59;5009325;28;20072;-62
2021/12/09 00:58:16;;;;;;;7.25;5.63;;;;;;;4.66;74.93;99663.56;5009004;28;20495;-63
2021/12/09 01:00:43;;;;;;;6.25;5.60;;;;;;;4.67;74.75;99663.50;5009147;28;20104;-62
2021/12/09 01:03:10;;;;;;;5.70;5.10;;;;;;;4.70;74.97;99671.13;5009000;28;20050;-62
2021/12/09 01:05:37;;;;;;;5.35;4.85;;;;;;;4.72;74.85;99689.25;5008339;28;20045;-59
2021/12/09 01:08:04;;;;;;;5.82;5.00;;;;;;;4.76;74.54;99688.16;5008841;28;20046;-59
2021/12/09 01:10:32;;;;;;;6.35;5.20;;;;;;;4.74;74.69;99674.41;5009201;28;20221;-62
2021/12/09 01:12:58;;;;;;;5.15;4.63;;;;;;;4.73;74.85;99675.34;5008768;28;20050;-61
2021/12/09 01:15:27;;;;;;;5.40;4.80;;;;;;;4.68;74.66;99679.91;5008544;28;20042;-61
2021/12/09 01:17:55;;;;;;;5.07;4.30;;;;;;;4.66;74.84;99689.53;5008341;28;20438;-61
2021/12/09 01:20:25;;;;;;;5.32;4.45;;;;;;;4.65;74.96;99680.91;5011196;28;20054;-61
2021/12/09 01:22:53;;;;;;;5.28;4.63;;;;;;;4.71;74.56;99671.97;5011643;28;20050;-62
2021/12/09 01:25:22;;;;;;;6.05;4.75;;;;;;;4.78;74.50;99669.91;5019013;28;20099;-63
2021/12/09 01:27:52;;;;;;;5.18;4.40;;;;;;;4.73;74.32;99670.13;5044769;28;20048;-62
2021/12/09 01:30:20;;;;;;;5.35;4.70;;;;;;;4.72;74.57;99671.91;5048500;28;20119;-61
2021/12/09 01:32:53;;;;;;;6.47;5.13;;;;;;;4.65;74.38;99677.50;5033557;28;20049;-61
2021/12/09 01:35:33;;;;;;;6.15;5.18;;;;;;;4.65;74.41;99680.91;5035463;28;20504;-62
2021/12/09 01:38:08;;;;;;;5.85;4.85;;;;;;;4.61;74.52;99682.00;5034501;28;21007;-61
2021/12/09 01:40:34;;;;;;;5.70;5.17;;;;;;;4.59;74.57;99678.63;5035519;28;20042;-61
2021/12/09 01:43:01;;;;;;;5.90;5.30;;;;;;;4.54;74.40;99678.81;5035272;28;20314;-72
2021/12/09 01:45:28;;;;;;;5.20;4.70;;;;;;;4.53;74.49;99674.56;5035509;28;20128;-61
2021/12/09 01:47:55;;;;;;;5.75;5.03;;;;;;;4.52;74.58;99675.47;5035339;28;20046;-62
2021/12/09 01:50:23;;;;;;;6.63;5.55;;;;;;;4.45;74.72;99670.66;5035285;28;20045;-61
2021/12/09 01:52:51;;;;;;;6.70;6.00;;;;;;;4.53;74.51;99677.16;5035232;28;20046;-61
2021/12/09 01:55:19;;;;;;;6.40;5.50;;;;;;;4.60;74.26;99674.25;5016748;28;20045;-62
2021/12/09 01:57:48;;;;;;;5.50;4.88;;;;;;;4.58;74.46;99684.72;5015422;28;20042;-62
2021/12/09 02:00:20;;;;;;;7.18;5.32;;;;;;;4.56;74.38;99686.56;5015444;28;20054;-62
2021/12/09 02:02:47;;;;;;;6.00;5.40;;;;;;;4.64;74.32;99688.78;5015136;28;20120;-61
2021/12/09 02:05:26;;;;;;;6.07;5.45;;;;;;;4.54;74.30;99684.03;5015374;28;20048;-62
2021/12/09 02:07:53;;;;;;;6.15;5.30;;;;;;;4.62;74.49;99686.28;5015187;28;20061;-62
2021/12/09 02:10:20;;;;;;;6.65;5.95;;;;;;;4.62;74.16;99686.28;5014648;28;20491;-61
2021/12/09 02:12:49;;;;;;;7.25;6.03;;;;;;;4.61;74.01;99681.13;5014991;28;20128;-62
2021/12/09 02:15:19;;;;;;;8.70;7.05;;;;;;;4.55;74.62;99683.13;5014945;28;20501;-62
2021/12/09 02:17:47;;;;;;;12.55;9.05;;;;;;;4.62;74.41;99680.22;5014859;28;20054;-62
2021/12/09 02:20:14;;;;;;;17.60;12.00;;;;;;;4.56;74.46;99682.19;5014807;28;20046;-63
2021/12/09 02:22:46;;;;;;;12.68;9.18;;;;;;;4.56;74.90;99678.78;5014687;28;20414;-61
2021/12/09 02:25:15;;;;;;;9.02;6.55;;;;;;;4.54;74.52;99675.41;5014434;28;20489;-61
2021/12/09 02:27:43;;;;;;;10.13;7.20;;;;;;;4.54;74.79;99676.22;5014862;28;20046;-62
2021/12/09 02:30:11;;;;;;;9.98;7.72;;;;;;;4.58;74.30;99674.31;5014696;28;20608;-61
2021/12/09 02:32:38;;;;;;;11.63;7.80;;;;;;;4.56;74.82;99679.59;5014928;28;20061;-61
2021/12/09 02:35:05;;;;;;;9.85;7.20;;;;;;;4.59;74.70;99683.81;5015205;28;20104;-61
2021/12/09 02:37:32;;;;;;;9.85;7.10;;;;;;;4.62;74.38;99685.41;5014673;28;20549;-61
2021/12/09 02:40:00;;;;;;;10.05;7.57;;;;;;;4.61;74.86;99684.59;5014404;28;20088;-61
2021/12/09 02:42:26;;;;;;;10.27;7.47;;;;;;;4.64;74.36;99675.78;5013836;28;20045;-61
2021/12/09 02:44:55;;;;;;;9.85;7.50;;;;;;;4.57;74.45;99677.84;5013884;28;20042;-62
2021/12/09 02:47:22;;;;;;;10.52;7.45;;;;;;;4.63;74.71;99669.75;5014457;28;20075;-61
2021/12/09 02:49:49;;;;;;;9.57;7.28;;;;;;;4.61;74.81;99670.72;5019864;28;20556;-61
2021/12/09 02:52:16;;;;;;;10.43;7.95;;;;;;;4.53;74.85;99671.13;5034235;28;20056;-62
2021/12/09 02:54:43;;;;;;;9.55;7.00;;;;;;;4.52;75.49;99670.28;5034227;28;20050;-61
2021/12/09 02:57:11;;;;;;;9.57;7.38;;;;;;;4.57;74.95;99675.25;5025775;28;20457;-61
2021/12/09 02:59:37;;;;;;;8.52;6.13;;;;;;;4.57;75.19;99677.84;5014179;28;20053;-61
2021/12/09 03:02:06;;;;;;;9.10;7.03;;;;;;;4.50;75.17;99681.66;5014093;28;20042;-61
2021/12/09 03:04:47;;;;;;;8.30;6.57;;;;;;;4.50;75.17;99673.88;5014188;28;20046;-62
2021/12/09 03:07:26;;;;;;;8.85;6.38;;;;;;;4.56;75.20;99676.19;5014449;28;20042;-61
2021/12/09 03:10:00;;;;;;;8.02;5.90;;;;;;;4.54;75.19;99676.22;5033735;28;20053;-61
2021/12/09 03:12:33;;;;;;;8.30;5.95;;;;;;;4.54;75.40;99676.22;5032006;28;20053;-62
2021/12/09 03:15:01;;;;;;;8.05;6.15;;;;;;;4.57;75.32;99680.44;5013803;28;20072;-62
2021/12/09 03:17:28;;;;;;;9.30;6.95;;;;;;;4.54;75.59;99683.19;5013771;28;20422;-62
2021/12/09 03:19:55;;;;;;;7.93;6.47;;;;;;;4.63;75.35;99685.34;5013771;28;20498;-61
2021/12/09 03:22:22;;;;;;;8.90;6.50;;;;;;;4.65;75.31;99680.09;5013730;28;20133;-62
2021/12/09 03:24:49;;;;;;;8.98;6.90;;;;;;;4.70;75.19;99686.72;5013683;28;20046;-61
2021/12/09 03:27:17;;;;;;;8.02;6.55;;;;;;;4.69;75.09;99681.59;5012906;28;20054;-61
2021/12/09 03:29:43;;;;;;;9.98;7.55;;;;;;;4.70;75.06;99678.94;5014056;28;20100;-62
2021/12/09 03:32:14;;;;;;;8.93;6.78;;;;;;;4.75;75.15;99676.13;5012426;28;20050;-61
2021/12/09 03:34:41;;;;;;;8.80;6.70;;;;;;;4.69;75.28;99681.59;5013408;28;20505;-62
2021/12/09 03:37:12;;;;;;;8.70;7.18;;;;;;;4.67;75.10;99684.28;5013363;28;20053;-61
2021/12/09 03:39:41;;;;;;;9.68;7.22;;;;;;;4.67;75.04;99684.28;5013481;28;20050;-61
2021/12/09 03:42:11;;;;;;;9.18;7.05;;;;;;;4.72;75.20;99689.25;5013384;28;20054;-61
2021/12/09 03:44:38;;;;;;;8.68;6.60;;;;;;;4.69;75.19;99686.81;5013544;28;20053;-61
2021/12/09 03:47:07;;;;;;;9.63;6.85;;;;;;;4.60;75.33;99687.22;5012780;28;20406;-61
2021/12/09 03:49:34;;;;;;;9.88;7.25;;;;;;;4.61;75.34;99687.19;5013204;28;20414;-61
2021/12/09 03:52:02;;;;;;;10.90;7.45;;;;;;;4.54;75.47;99694.41;5013269;28;20049;-61
2021/12/09 03:54:29;;;;;;;9.95;7.53;;;;;;;4.50;75.54;99690.28;5013272;28;20050;-61
2021/12/09 03:56:57;;;;;;;10.38;7.03;;;;;;;4.51;75.56;99697.19;5012282;28;20513;-61
2021/12/09 03:59:24;;;;;;;10.23;7.57;;;;;;;4.54;75.52;99689.22;5013064;28;20050;-61
2021/12/09 04:01:51;;;;;;;10.82;7.68;;;;;;;4.49;75.54;99690.38;5011994;28;20041;-63
2021/12/09 04:04:18;;;;;;;10.02;7.45;;;;;;;4.45;75.55;99694.03;5017404;28;20482;-61
2021/12/09 04:06:45;;;;;;;11.98;8.02;;;;;;;4.39;75.68;99696.03;5010011;28;20213;-61
2021/12/09 04:09:14;;;;;;;11.48;7.68;;;;;;;4.44;75.47;99689.75;5009823;28;20050;-61
2021/12/09 04:11:41;;;;;;;11.18;7.60;;;;;;;4.44;75.74;99693.19;5009812;28;20085;-61
2021/12/09 04:14:08;;;;;;;10.52;8.20;;;;;;;4.48;75.97;99697.34;5009355;28;20490;-62
2021/12/09 04:16:36;;;;;;;10.73;8.02;;;;;;;4.48;75.47;99697.34;5009677;28;20418;-61
2021/12/09 04:19:05;;;;;;;13.30;8.88;;;;;;;4.48;75.42;99699.94;5009344;28;20050;-61
2021/12/09 04:21:34;;;;;;;11.57;8.60;;;;;;;4.45;75.48;99699.25;5008735;28;20046;-61
2021/12/09 04:24:07;;;;;;;13.93;9.75;;;;;;;4.40;75.69;99695.09;5009203;28;20072;-62
2021/12/09 04:26:42;;;;;;;14.98;10.73;;;;;;;4.36;75.61;99700.50;5009515;28;20042;-61
2021/12/09 04:29:10;;;;;;;12.60;9.52;;;;;;;4.35;75.68;99706.63;5009472;28;20046;-61
2021/12/09 04:31:37;;;;;;;14.40;10.13;;;;;;;4.27;75.82;99703.53;5009635;28;20053;-61
2021/12/09 04:34:05;;;;;;;14.73;10.57;;;;;;;4.30;75.47;99712.03;5009571;28;20096;-61
2021/12/09 04:36:33;;;;;;;15.50;10.90;;;;;;;4.23;75.70;99708.88;5009391;28;20463;-61
2021/12/09 04:39:01;;;;;;;15.75;10.88;;;;;;;4.19;75.65;99711.69;5008698;28;20045;-62
2021/12/09 04:41:27;;;;;;;16.92;11.80;;;;;;;4.19;75.44;99717.72;5009228;28;20054;-62
2021/12/09 04:43:54;;;;;;;16.33;11.40;;;;;;;4.14;75.67;99698.06;5009468;28;20073;-66
2021/12/09 04:46:21;;;;;;;15.88;11.45;;;;;;;4.14;75.43;99711.06;5009316;28;20084;-61
2021/12/09 04:48:48;;;;;;;16.20;11.00;;;;;;;4.18;75.48;99712.63;5009291;28;20128;-61
2021/12/09 04:51:14;;;;;;;15.93;11.30;;;;;;;4.18;75.08;99713.44;5009389;28;20046;-63
2021/12/09 04:53:41;;;;;;;15.85;11.18;;;;;;;4.20;74.87;99715.97;5009620;28;20053;-64
2021/12/09 04:56:08;;;;;;;16.98;11.77;;;;;;;4.19;74.95;99712.53;5008456;28;20058;-61
2021/12/09 04:58:35;;;;;;;17.08;11.23;;;;;;;4.15;74.76;99700.63;5009146;28;20061;-61
2021/12/09 05:01:05;;;;;;;15.63;11.20;;;;;;;4.13;74.74;99699.84;5009132;28;20045;-63
2021/12/09 05:03:32;;;;;;;15.18;11.30;;;;;;;4.06;74.65;99703.63;5009034;28;20569;-62
2021/12/09 05:06:00;;;;;;;15.48;11.18;;;;;;;4.08;74.75;99702.66;5009164;28;20073;-62
2021/12/09 05:08:28;;;;;;;16.15;11.00;;;;;;;4.06;74.35;99714.00;5011111;28;20053;-61
2021/12/09 05:13:31;;;;;;;16.08;10.80;;;;;;;3.85;74.77;99718.44;5012493;28;20049;-61
2021/12/09 05:15:59;;;;;;;16.63;11.40;;;;;;;3.80;74.39;99721.25;5013068;28;20058;-61
2021/12/09 05:18:27;;;;;;;19.55;11.82;;;;;;;3.75;74.62;99728.41;5012982;28;20123;-61
2021/12/09 05:20:55;;;;;;;15.68;11.32;;;;;;;3.71;74.95;99738.06;5012632;28;20050;-64
2021/12/09 05:23:23;;;;;;;17.20;11.38;;;;;;;3.72;74.69;99739.75;5012831;28;20042;-61
2021/12/09 05:25:50;;;;;;;16.20;11.30;;;;;;;3.67;74.61;99740.84;5012608;28;20046;-61
2021/12/09 05:28:18;;;;;;;16.63;11.75;;;;;;;3.72;74.59;99742.34;5012703;28;20050;-62
2021/12/09 05:33:49;;;;;;;18.00;12.07;;;;;;;3.71;74.42;99752.81;4990600;28;20565;-61
2021/12/09 05:36:17;;;;;;;18.92;12.55;;;;;;;3.74;74.18;99750.88;5008214;28;20050;-62
2021/12/09 05:38:44;;;;;;;18.75;12.73;;;;;;;3.79;73.89;99750.69;5012742;28;20042;-71
2021/12/09 05:41:10;;;;;;;20.75;12.43;;;;;;;3.82;74.18;99753.16;5012545;28;20081;-62
2021/12/09 05:43:38;;;;;;;17.52;12.50;;;;;;;3.87;73.82;99747.75;5012422;28;20056;-62
2021/12/09 05:46:05;;;;;;;19.95;13.73;;;;;;;3.85;74.08;99749.59;5011568;28;20050;-61
2021/12/09 05:48:32;;;;;;;19.42;13.10;;;;;;;3.88;73.76;99747.69;5012447;28;20045;-61
2021/12/09 05:50:59;;;;;;;20.33;13.70;;;;;;;3.84;73.67;99738.34;5024441;28;20041;-61
2021/12/09 05:53:26;;;;;;;21.27;13.93;;;;;;;3.81;74.18;99735.91;5051673;28;20045;-62
2021/12/09 05:55:53;;;;;;;21.45;14.30;;;;;;;3.87;74.04;99734.78;5051630;28;20045;-61
2021/12/09 05:58:22;;;;;;;24.67;14.25;;;;;;;3.85;73.77;99742.63;5051553;28;20060;-59
2021/12/09 06:00:51;;;;;;;22.52;14.55;;;;;;;3.83;74.14;99751.41;5030382;28;20061;-62
2021/12/09 06:03:25;;;;;;;21.30;14.48;;;;;;;3.83;73.95;99749.63;5027907;28;20098;-62
2021/12/09 06:05:57;;;;;;;;;;;;;;;3.84;73.97;99748.72;5035450;28;20553;-61
2021/12/09 06:08:29;;;;;;;20.13;13.27;;;;;;;3.88;73.91;99749.44;5031452;28;20035;-63
2021/12/09 06:10:56;;;;;;;23.58;14.85;;;;;;;3.85;73.84;99758.22;5031442;28;20107;-69
2021/12/09 06:13:25;;;;;;;24.88;15.35;;;;;;;3.80;73.71;99767.97;5031431;28;20049;-67
2021/12/09 06:15:52;;;;;;;23.88;14.98;;;;;;;3.76;74.04;99764.66;5027900;28;20060;-64
2021/12/09 06:18:19;;;;;;;27.08;16.50;;;;;;;3.83;73.90;99772.16;5011452;28;20060;-64
2021/12/09 06:20:45;;;;;;;27.02;16.83;;;;;;;3.84;73.82;99773.84;5010532;28;20049;-63
2021/12/09 06:23:12;;;;;;;29.08;17.13;;;;;;;3.84;73.86;99777.28;5011654;28;20058;-64
2021/12/09 06:25:39;;;;;;;28.27;17.52;;;;;;;3.84;73.91;99776.44;5011704;28;20499;-61
2021/12/09 06:28:06;;;;;;;29.98;17.83;;;;;;;3.83;73.84;99769.56;5024866;28;20041;-66
2021/12/09 06:30:33;;;;;;;29.83;17.63;;;;;;;3.83;74.18;99777.34;5037797;28;20437;-65
2021/12/09 06:33:01;;;;;;;14.80;5.70;;;;;;;4.18;74.28;99778.38;5027087;28;20045;-62
2021/12/09 06:35:27;;;;;;;33.10;17.90;;;;;;;4.00;74.10;99779.19;5037143;28;20675;-65
2021/12/09 06:37:55;;;;;;;33.22;17.52;;;;;;;3.88;74.68;99783.19;5033524;28;20049;-61
2021/12/09 06:40:23;;;;;;;32.42;17.50;;;;;;;3.74;75.48;99788.97;5031169;28;20046;-61
2021/12/09 06:42:51;;;;;;;32.80;18.88;;;;;;;3.75;75.14;99791.50;5030976;28;20494;-61
2021/12/09 06:45:20;;;;;;;31.58;18.17;;;;;;;3.64;75.38;99792.88;5030792;28;20053;-62
2021/12/09 06:47:48;;;;;;;31.83;18.50;;;;;;;3.60;75.77;99797.38;5030778;28;20041;-62
2021/12/09 06:50:18;;;;;;;34.90;19.05;;;;;;;3.65;75.58;99795.41;5029549;28;20532;-60
2021/12/09 06:52:45;;;;;;;36.90;20.15;;;;;;;3.58;75.55;99788.78;5030740;28;20045;-60
2021/12/09 06:55:14;;;;;;;39.35;18.63;;;;;;;4.20;74.61;99791.28;5030775;28;20052;-76
2021/12/09 06:57:43;;;;;;;34.90;19.73;;;;;;;3.99;74.89;99793.94;5035766;28;20063;-62
2021/12/09 07:00:24;;;;;;;37.28;20.10;;;;;;;3.89;75.06;99795.25;5040699;28;20486;-62
2021/12/09 07:02:51;;;;;;;37.88;19.73;;;;;;;3.76;74.94;99797.56;5039723;28;20053;-62
2021/12/09 07:05:21;;;;;;;35.65;19.45;;;;;;;3.79;75.46;99791.38;5037360;28;20084;-62
2021/12/09 07:07:49;;;;;;;32.80;18.17;;;;;;;3.86;74.99;99792.78;5040280;28;20072;-63
2021/12/09 07:10:17;;;;;;;33.35;18.75;;;;;;;3.78;75.25;99795.72;5039135;28;20481;-62
2021/12/09 15:57:21;;;;;;;50.90;29.80;;;;;;;6.50;73.96;100190.75;5064986;28;20406;-60
2021/12/09 15:59:48;;;;;;;55.25;30.83;;;;;;;6.51;75.22;100189.81;5065654;28;20413;-60
2021/12/09 16:02:20;;;;;;;51.58;30.25;;;;;;;6.49;75.93;100189.91;5065808;28;20098;-61
2021/12/09 16:04:47;;;;;;;42.63;26.30;;;;;;;6.49;76.41;100196.91;5065349;28;20493;-60
2021/12/09 16:07:14;;;;;;;45.00;27.63;;;;;;;6.54;76.57;100197.50;5066032;28;20051;-63
2021/12/09 16:09:41;;;;;;;46.25;26.58;;;;;;;6.51;76.72;100200.25;5065600;28;20815;-60
2021/12/09 16:12:08;;;;;;;42.17;26.25;;;;;;;6.49;76.97;100199.50;5045325;28;20681;-61
2021/12/09 16:14:40;;;;;;;39.58;24.02;;;;;;;6.46;77.22;100197.03;5045149;28;20395;-61
2021/12/09 16:17:08;;;;;;;40.17;24.73;;;;;;;6.44;77.50;100188.47;5051792;28;20052;-61
2021/12/09 16:19:38;;;;;;;40.78;25.42;;;;;;;6.45;77.18;100193.59;5064915;28;20048;-64
2021/12/09 16:24:56;;;;;;;60.55;35.83;;;;;;;6.43;77.45;100215.44;5065310;28;20510;-63
2021/12/09 16:27:25;;;;;;;47.33;28.58;;;;;;;6.34;77.64;100214.09;5064825;28;20055;-64
2021/12/09 16:29:53;;;;;;;81.78;51.72;;;;;;;6.30;77.67;100202.16;5045104;28;20057;-63
2021/12/09 16:32:20;;;;;;;70.75;45.25;;;;;;;6.63;76.93;100206.66;5059669;28;20128;-65
2021/12/09 16:34:51;;;;;;;61.25;35.30;;;;;;;6.55;76.90;100214.81;5065211;28;20049;-66
2021/12/09 16:37:19;;;;;;;59.38;34.42;;;;;;;6.50;77.09;100217.66;5065033;28;20080;-66
2021/12/09 16:39:45;;;;;;;61.45;35.22;;;;;;;6.47;76.93;100219.56;5064713;28;20048;-61
2021/12/09 16:42:13;;;;;;;67.72;37.65;;;;;;;6.44;76.81;100214.53;5061913;28;20041;-67
2021/12/09 16:44:41;;;;;;;80.32;46.13;;;;;;;6.38;76.91;100226.91;5062664;28;20052;-62
2021/12/09 16:47:08;;;;;;;74.32;41.30;;;;;;;6.37;76.89;100230.44;5059359;28;20057;-64
2021/12/09 16:49:34;;;;;;;75.32;42.28;;;;;;;6.35;77.02;100227.06;5064178;28;20625;-61
2021/12/09 16:52:02;;;;;;;70.60;39.38;;;;;;;6.32;76.59;100231.56;5063886;28;20110;-61
2021/12/09 16:54:33;;;;;;;76.40;41.08;;;;;;;6.31;76.50;100230.72;5064086;28;20052;-62
2021/12/09 16:57:28;;;;;;;66.40;35.45;;;;;;;6.29;76.54;100240.38;5063857;28;20084;-61
2021/12/09 16:59:49;;;;;;;45.58;29.15;;;;;;;6.29;76.54;100242.16;5063647;28;20045;-62
2021/12/09 17:02:16;;;;;;;43.90;27.35;;;;;;;6.28;76.30;100238.69;5063791;28;20546;-62
2021/12/09 17:04:46;;;;;;;56.72;33.00;;;;;;;6.23;76.26;100238.06;5064464;28;20076;-61
2021/12/09 17:07:13;;;;;;;79.95;46.03;;;;;;;6.22;76.31;100244.16;5056153;28;20520;-68
2021/12/09 17:09:40;;;;;;;162.82;78.95;;;;;;;6.22;76.16;100252.00;5051410;28;20044;-63
2021/12/09 17:12:08;;;;;;;69.05;39.80;;;;;;;6.21;75.97;100250.31;5051303;28;20052;-66
2021/12/09 17:14:36;;;;;;;74.00;44.85;;;;;;;6.20;75.88;100249.47;5051383;28;20517;-66
2021/12/09 17:17:04;;;;;;;76.35;45.72;;;;;;;6.16;76.12;100253.13;5051324;28;20428;-62
2021/12/09 17:19:33;;;;;;;95.60;56.10;;;;;;;6.17;75.60;100265.25;5043272;28;20045;-63
2021/12/09 17:22:00;;;;;;;149.07;80.85;;;;;;;6.14;75.66;100265.38;5031437;28;20417;-65
2021/12/09 17:24:27;;;;;;;96.65;54.20;;;;;;;6.33;75.14;100260.16;5031490;28;20053;-65
2021/12/09 17:26:58;;;;;;;69.10;41.25;;;;;;;6.26;75.26;100261.38;5031214;28;20081;-66
2021/12/09 17:29:26;;;;;;;88.47;49.03;;;;;;;6.23;75.31;100253.69;5031452;28;20041;-62
2021/12/09 17:31:53;;;;;;;80.35;43.85;;;;;;;6.30;74.94;100275.13;5030438;28;20108;-63
2021/12/09 17:34:26;;;;;;;69.80;38.95;;;;;;;6.26;75.16;100278.75;5031223;28;20053;-63
2021/12/09 17:36:56;;;;;;;62.40;35.97;;;;;;;6.21;75.13;100277.22;5063114;28;20083;-65
2021/12/09 17:39:23;;;;;;;73.90;40.13;;;;;;;6.27;74.89;100278.69;5031137;28;20050;-63
2021/12/09 17:41:53;;;;;;;121.03;66.53;;;;;;;6.25;74.99;100282.25;5030945;28;20053;-63
2021/12/09 17:44:26;;;;;;;76.32;45.75;;;;;;;6.20;74.97;100282.50;5030924;28;20568;-62
2021/12/09 17:46:58;;;;;;;52.22;32.78;;;;;;;6.20;74.99;100283.31;5030865;28;20046;-62
2021/12/09 17:49:31;;;;;;;52.45;31.85;;;;;;;6.17;74.88;100286.09;5030606;28;20061;-62
2021/12/09 17:52:38;;;;;;;48.72;29.17;;;;;;;6.17;74.82;100291.31;5030546;28;20489;-62
2021/12/09 17:54:52;;;;;;;42.75;26.70;;;;;;;6.15;74.77;100293.13;5031102;28;20395;-62
2021/12/09 17:57:19;;;;;;;50.45;28.30;;;;;;;6.15;75.10;100285.31;5030586;28;20051;-61
2021/12/09 17:59:46;;;;;;;31.42;16.27;;;;;;;6.27;75.76;100289.13;5030396;28;20095;-62
2021/12/09 18:02:17;;;;;;;57.60;33.72;;;;;;;6.73;73.64;100293.06;5030631;28;20465;-61
2021/12/09 18:04:44;;;;;;;51.67;30.20;;;;;;;6.49;74.65;100295.94;5030405;28;20128;-60
2021/12/09 18:07:11;;;;;;;56.45;32.58;;;;;;;6.42;75.12;100303.19;5030313;28;20053;-60
2021/12/09 18:09:38;;;;;;;80.80;39.60;;;;;;;6.32;75.17;100304.53;5039738;28;20053;-62
2021/12/09 18:12:06;;;;;;;86.20;41.58;;;;;;;6.25;75.10;100292.69;5049290;28;20080;-63
2021/12/09 18:14:32;;;;;;;70.55;38.28;;;;;;;6.20;75.18;100291.16;5038580;28;20636;-61
2021/12/09 18:17:06;;;;;;;55.75;30.75;;;;;;;6.21;75.00;100295.44;5035173;28;20413;-60
2021/12/09 18:19:34;;;;;;;79.95;39.90;;;;;;;6.15;75.21;100306.16;5028679;28;20041;-60
2021/12/09 18:22:00;;;;;;;71.43;37.28;;;;;;;6.16;75.04;100320.03;5029527;28;20048;-62
2021/12/09 18:24:27;;;;;;;58.22;33.67;;;;;;;6.18;74.99;100320.78;5037926;28;20060;-60
2021/12/09 18:26:54;;;;;;;50.88;29.67;;;;;;;6.12;75.06;100314.09;5039120;28;20428;-61
2021/12/09 18:29:20;;;;;;;46.70;26.70;;;;;;;6.17;74.94;100319.97;5050252;28;20517;-60
2021/12/09 18:31:47;;;;;;;44.63;27.75;;;;;;;6.16;74.63;100320.03;5050097;28;20045;-61
2021/12/09 18:34:18;;;;;;;51.30;28.50;;;;;;;6.02;74.98;100324.09;5049510;28;20459;-62
2021/12/09 18:36:50;;;;;;;72.25;41.60;;;;;;;6.08;74.71;100330.78;5049690;28;20291;-62
2021/12/09 18:39:17;;;;;;;41.92;25.67;;;;;;;6.11;74.85;100320.22;5048735;28;20048;-61
2021/12/09 18:41:44;;;;;;;37.33;23.85;;;;;;;6.14;74.59;100314.88;5050097;28;20049;-61
2021/12/09 18:44:10;;;;;;;38.95;23.20;;;;;;;6.12;74.49;100308.91;5031971;28;20099;-60
2021/12/09 18:46:37;;;;;;;36.03;22.50;;;;;;;6.12;74.74;100319.31;5029995;28;20107;-61
2021/12/09 18:49:06;;;;;;;37.55;21.88;;;;;;;6.09;74.47;100314.22;5029273;28;20053;-59
2021/12/09 18:51:36;;;;;;;39.22;22.25;;;;;;;6.10;74.30;100304.69;5029687;28;20045;-67
2021/12/09 18:54:06;;;;;;;34.47;21.45;;;;;;;6.09;74.33;100309.03;5029679;28;20048;-61
2021/12/09 18:56:33;;;;;;;39.65;25.17;;;;;;;6.00;74.76;100305.06;5029115;28;20064;-60
2021/12/09 18:59:00;;;;;;;36.10;22.90;;;;;;;6.00;74.75;100312.88;5029195;28;20490;-61
2021/12/09 19:01:29;;;;;;;37.60;23.90;;;;;;;6.00;74.65;100330.28;5029139;28;20502;-62
2021/12/09 19:03:56;;;;;;;37.40;22.10;;;;;;;6.05;74.69;100334.34;5029080;28;20068;-63
2021/12/09 19:06:24;;;;;;;38.10;22.60;;;;;;;6.07;74.13;100328.25;5029821;28;20057;-60
2021/12/09 19:08:51;;;;;;;37.58;23.77;;;;;;;6.05;74.26;100328.31;5029674;28;20045;-59
2021/12/09 19:11:20;;;;;;;38.60;23.80;;;;;;;6.01;74.43;100326.78;5029370;28;20049;-61
2021/12/09 19:13:48;;;;;;;41.42;24.63;;;;;;;6.04;74.11;100335.28;5029341;28;20056;-60
2021/12/09 19:16:25;;;;;;;39.45;23.33;;;;;;;6.07;74.27;100338.66;5037839;28;20105;-61
2021/12/09 19:18:55;;;;;;;40.20;23.10;;;;;;;6.04;74.00;100332.69;5048770;28;20045;-63
2021/12/09 19:21:22;;;;;;;34.72;21.80;;;;;;;6.04;74.31;100330.09;5049146;28;20048;-62
2021/12/09 19:23:49;;;;;;;39.47;24.45;;;;;;;6.04;74.23;100334.44;5035588;28;20091;-60
2021/12/09 19:26:15;;;;;;;37.67;23.33;;;;;;;6.02;74.25;100331.06;5048974;28;20048;-60
2021/12/09 19:28:44;;;;;;;41.47;25.00;;;;;;;6.11;73.71;100337.63;5049275;28;20049;-60
2021/12/09 19:31:12;;;;;;;40.30;22.70;;;;;;;6.05;73.77;100344.78;5048016;28;20054;-60
2021/12/09 19:33:39;;;;;;;45.55;24.50;;;;;;;6.03;74.08;100348.38;5034156;28;20049;-61
2021/12/09 19:36:08;;;;;;;39.00;23.92;;;;;;;5.96;73.92;100350.38;5028576;28;20056;-60
2021/12/09 19:38:35;;;;;;;38.05;24.17;;;;;;;5.89;74.13;100336.78;5027639;28;20052;-62
2021/12/09 19:41:05;;;;;;;41.30;24.60;;;;;;;5.92;73.98;100338.41;5028991;28;20461;-59
2021/12/09 19:43:33;;;;;;;41.00;23.80;;;;;;;5.85;74.37;100342.19;5042110;28;20041;-60
2021/12/09 19:46:00;;;;;;;46.67;25.23;;;;;;;5.83;74.21;100344.03;5045708;28;20049;-61
2021/12/09 19:48:27;;;;;;;41.03;23.17;;;;;;;5.86;74.15;100343.88;5048155;28;20086;-59
2021/12/09 19:50:53;;;;;;;38.75;22.92;;;;;;;5.88;74.04;100339.47;5047353;28;20048;-60
2021/12/09 19:53:21;;;;;;;38.85;22.98;;;;;;;5.91;74.02;100347.13;5046648;28;20045;-67
2021/12/09 19:55:47;;;;;;;41.42;23.83;;;;;;;5.90;73.69;100340.22;5047543;28;20143;-63
2021/12/09 19:58:14;;;;;;;39.72;23.80;;;;;;;6.19;73.12;100336.34;5048225;28;20057;-60
2021/12/09 20:00:42;;;;;;;38.40;23.35;;;;;;;6.09;73.55;100340.28;5049148;28;20060;-60
2021/12/09 20:03:09;;;;;;;45.72;27.00;;;;;;;6.06;73.43;100353.44;5048277;28;20051;-60
2021/12/09 20:05:38;;;;;;;39.47;23.58;;;;;;;6.04;73.62;100358.75;5048293;28;20053;-60
2021/12/09 20:08:06;;;;;;;40.75;23.58;;;;;;;6.00;73.57;100358.94;5048450;28;20049;-61
2021/12/09 20:10:34;;;;;;;44.05;23.52;;;;;;;5.98;73.47;100352.91;5048501;28;20492;-60
2021/12/09 20:13:03;;;;;;;50.10;28.23;;;;;;;5.96;73.65;100360.78;5048487;28;20052;-60
2021/12/09 20:15:30;;;;;;;47.42;26.77;;;;;;;5.93;73.42;100360.94;5048456;28;20402;-60
2021/12/09 20:17:57;;;;;;;44.92;26.23;;;;;;;5.92;73.36;100363.56;5047966;28;20045;-59
2021/12/09 20:20:24;;;;;;;44.83;26.63;;;;;;;5.90;73.53;100368.84;5048755;28;20512;-60
2021/12/09 20:23:06;;;;;;;43.33;25.30;;;;;;;5.90;73.40;100371.47;5039852;28;20111;-60
2021/12/09 20:25:33;;;;;;;43.47;24.17;;;;;;;5.88;73.54;100365.50;5028438;28;20049;-61